Ana Sayfa
METAR-TAF:

METAR-TAF

Havaalanları :

Oradea, Romanya

Enlem: 47-03N, Boylam: 021-56E, yükseklik: 135 m

Güncel hava durumu gözlemi

Rapor saat 18:30 UTC de 19 dakika önce yapıldı.
Rüzgar doğudan 5 kt, doğu/kuzeydoğu ve güneydoğu arasında değişken
Sıcaklık 21°C
Nem 88%
Basınç 1014 hPa
Görüş mesafesi 10 km veya daha fazla

METAR: LROD 191830Z AUTO 09005KT 070V130 9999 BKN110/// 21/19 Q1014

Saat: 21:49 (18:49 UTC)

Tahmin

Rapor saat 17:00 UTC de 1 saat ve 49 dakika önce yapıldı.
Ayın 19'si saat 18 UTC'den ayın 20'si saat 03 UTC'ye kadar geçerli Tahmin
Rüzgar doğudan 6 kt
Görüş mesafesi 10 km veya daha fazla
4500 ft yükseklikte az bulutlu, Kümülonimbus.
Dönüşüyor
ayın 19'si saat 18 UTC'den ayın 19'si saat 20 UTC'ye kadar
3500 ft yükseklikte az bulutlu
Olasılık 30% :
Geçici
ayın 20'si saat 01 UTC'den ayın 20'si saat 03 UTC'ye kadar
Görüş mesafesi: 5000 m
Pus

TAF: LROD 191700Z 1918/2003 08006KT 9999 FEW045CB BECMG 1918/1920 FEW035 PROB30 TEMPO 2001/2003 5000 BR

4.000'den fazla havaalanı için hava durumu gözlemleri ve tahminleri (METAR ve TAF raporları).

Kullanılabilir istasyonlar harita üzerinde sarı ve kırmızı noktalarla gösterilir.

İstasyonun adını görmek için fareyi noktanın üzerinde gezdirin.

Sonrasında hava gözlem ve tahminlerini görmek için tıklayın.

Haritayı değiştirmek için: yaklaştırmak için siyah artı işaretli yeşil düğmeye ve uzaklaştırmak için de eksi işaretli düğmeye hızla tıklayın; bitişik haritalar için yeşil okları kullanın.


METAR-TAF: